Time;durP1;ratioP1;P1;durP2;ratioP2;P2;SDS_P1;SDS_P2;PMS_P1;PMS_P2;Temp;Humidity;BMP_temperature;BMP_pressure;BME280_temperature;BME280_humidity;BME280_pressure;Samples;Min_cycle;Max_cycle;Signal;HPM_P1;HPM_P2
2023/01/29 00:00:51;;;;;;;14.43;7.32;;;1.30;78.00;;;;;;5012880;28;20205;-74
2023/01/29 00:03:16;;;;;;;14.70;8.40;;;1.30;78.10;;;;;;5024991;28;20213;-75
2023/01/29 00:05:42;;;;;;;13.53;7.90;;;1.30;78.00;;;;;;5026221;28;20186;-76
2023/01/29 00:08:07;;;;;;;14.67;7.80;;;1.30;78.00;;;;;;5022226;28;20549;-76
2023/01/29 00:10:33;;;;;;;15.97;8.73;;;1.30;77.70;;;;;;5015855;28;20235;-77
2023/01/29 00:12:58;;;;;;;16.20;7.97;;;1.20;77.80;;;;;;5018638;28;20272;-78
2023/01/29 00:15:24;;;;;;;14.93;7.37;;;1.20;78.00;;;;;;5022165;28;20186;-76
2023/01/29 00:17:49;;;;;;;13.53;7.97;;;1.30;78.10;;;;;;5021515;28;20186;-75
2023/01/29 00:20:15;;;;;;;14.03;7.47;;;1.30;78.10;;;;;;5015262;28;20214;-77
2023/01/29 00:22:41;;;;;;;16.40;8.07;;;1.30;77.80;;;;;;5019257;28;20669;-77
2023/01/29 00:25:07;;;;;;;17.43;9.20;;;1.20;78.00;;;;;;5022807;28;20432;-73
2023/01/29 00:27:33;;;;;;;15.00;8.52;;;1.20;78.30;;;;;;5018718;28;20801;-76
2023/01/29 00:30:08;;;;;;;12.50;7.50;;;1.30;78.60;;;;;;5013370;28;20221;-76
2023/01/29 00:32:34;;;;;;;15.25;7.88;;;1.20;78.60;;;;;;5016067;28;20185;-75
2023/01/29 00:35:00;;;;;;;15.90;8.00;;;1.30;78.70;;;;;;5020365;28;20232;-75
2023/01/29 00:37:25;;;;;;;16.73;8.47;;;1.40;78.30;;;;;;5025272;28;20194;-75
2023/01/29 00:39:51;;;;;;;16.73;8.93;;;1.30;78.00;;;;;;5016424;28;20200;-76
2023/01/29 00:45:01;;;;;;;14.85;8.23;;;1.30;78.30;;;;;;5017604;28;20197;-76
2023/01/29 00:47:29;;;;;;;14.70;8.07;;;1.30;78.30;;;;;;5021368;28;20190;-73
2023/01/29 00:49:55;;;;;;;13.82;8.13;;;1.30;78.10;;;;;;5014244;28;20265;-77
2023/01/29 00:52:24;;;;;;;16.10;7.90;;;1.40;77.80;;;;;;5022954;28;20193;-74
2023/01/29 00:54:54;;;;;;;16.65;8.38;;;1.40;77.80;;;;;;5029252;28;20182;-76
2023/01/29 00:57:20;;;;;;;14.88;8.95;;;1.40;77.70;;;;;;5025662;28;20283;-74
2023/01/29 00:59:46;;;;;;;16.25;8.70;;;1.40;77.80;;;;;;5026591;28;20610;-76
2023/01/29 01:04:56;;;;;;;15.10;8.20;;;1.30;77.80;;;;;;4999615;28;20167;-76
2023/01/29 01:07:21;;;;;;;14.70;8.00;;;1.20;78.00;;;;;;5009510;28;20171;-75
2023/01/29 01:12:31;;;;;;;13.60;7.85;;;1.20;78.40;;;;;;5033535;28;20188;-76
2023/01/29 01:14:57;;;;;;;14.77;8.93;;;1.20;78.30;;;;;;5053229;28;20272;-78
2023/01/29 01:17:22;;;;;;;15.97;8.03;;;1.10;78.40;;;;;;5051095;28;20192;-76
2023/01/29 01:19:48;;;;;;;16.90;8.30;;;1.10;78.60;;;;;;5032239;28;20201;-75
2023/01/29 01:22:14;;;;;;;14.57;7.37;;;1.10;78.70;;;;;;5024767;28;20233;-76
2023/01/29 01:24:39;;;;;;;16.20;7.57;;;1.10;78.60;;;;;;5029731;28;20204;-75
2023/01/29 01:27:05;;;;;;;14.93;7.67;;;1.00;78.30;;;;;;5027701;28;20181;-76
2023/01/29 01:29:31;;;;;;;14.50;8.27;;;1.00;78.70;;;;;;5021606;28;20181;-75
2023/01/29 01:31:57;;;;;;;15.00;7.93;;;1.00;79.00;;;;;;5021465;28;20435;-76
2023/01/29 01:34:22;;;;;;;13.33;8.00;;;1.10;78.90;;;;;;5018826;28;20615;-76
2023/01/29 01:36:48;;;;;;;15.30;7.53;;;1.10;78.40;;;;;;5025995;28;20192;-76
2023/01/29 01:39:14;;;;;;;17.90;8.67;;;1.00;78.40;;;;;;5029870;28;20201;-76
2023/01/29 01:41:39;;;;;;;15.13;7.93;;;1.00;78.60;;;;;;5024018;28;20213;-77
2023/01/29 01:44:05;;;;;;;13.53;7.20;;;1.00;78.70;;;;;;5030548;28;20177;-75
2023/01/29 01:46:34;;;;;;;17.13;9.00;;;1.00;78.70;;;;;;5033166;28;20648;-76
2023/01/29 01:49:02;;;;;;;13.43;7.75;;;1.00;78.70;;;;;;5039910;28;20420;-75
2023/01/29 01:51:31;;;;;;;15.10;8.05;;;1.00;78.60;;;;;;5022202;28;20212;-74
2023/01/29 01:54:02;;;;;;;17.60;8.63;;;1.00;78.30;;;;;;5019567;28;20186;-75
2023/01/29 01:56:37;;;;;;;20.80;8.45;;;1.00;78.40;;;;;;5024773;28;20224;-77
2023/01/29 01:59:08;;;;;;;17.05;8.55;;;1.00;78.60;;;;;;5022173;28;20213;-75
2023/01/29 02:01:34;;;;;;;19.58;7.60;;;1.00;78.30;;;;;;5015621;28;20217;-75
2023/01/29 02:09:45;;;;;;;17.40;7.97;;;1.00;78.30;;;;;;5015048;28;20204;-76
2023/01/29 02:12:12;;;;;;;13.00;7.78;;;1.00;78.30;;;;;;5022818;28;20180;-75
2023/01/29 02:14:40;;;;;;;15.05;7.75;;;1.00;78.40;;;;;;5013949;28;20715;-77
2023/01/29 02:17:09;;;;;;;16.52;8.38;;;0.90;78.10;;;;;;5029019;28;20199;-77
2023/01/29 02:19:51;;;;;;;16.90;8.65;;;0.90;78.70;;;;;;5014454;28;20204;-76
2023/01/29 02:22:30;;;;;;;12.63;7.80;;;0.80;78.70;;;;;;5021372;28;20324;-75
2023/01/29 02:25:08;;;;;;;16.08;8.05;;;0.70;78.60;;;;;;5018105;28;20514;-78
2023/01/29 02:27:39;;;;;;;16.95;8.07;;;0.60;78.70;;;;;;5032294;28;20174;-77
2023/01/29 02:30:17;;;;;;;16.08;7.75;;;0.70;79.20;;;;;;5025552;28;20204;-79
2023/01/29 02:33:00;;;;;;;12.18;7.50;;;0.80;79.00;;;;;;5023688;28;20208;-75
2023/01/29 02:35:37;;;;;;;12.32;7.50;;;0.80;78.90;;;;;;5024897;28;20221;-75
2023/01/29 02:38:08;;;;;;;17.08;8.38;;;0.80;78.10;;;;;;5028886;28;20196;-74
2023/01/29 02:40:44;;;;;;;14.55;7.97;;;0.80;78.40;;;;;;5020830;28;20209;-74
2023/01/29 02:43:28;;;;;;;15.00;8.40;;;0.70;78.40;;;;;;5024170;28;20209;-75
2023/01/29 02:46:18;;;;;;;15.90;7.95;;;0.70;78.40;;;;;;5020974;28;20178;-76
2023/01/29 02:48:59;;;;;;;17.83;8.52;;;0.70;78.40;;;;;;5010387;28;20209;-76
2023/01/29 02:51:41;;;;;;;15.02;8.15;;;0.70;78.40;;;;;;5022768;28;20239;-74
2023/01/29 02:54:41;;;;;;;14.05;7.97;;;0.70;78.60;;;;;;5026187;28;20674;-75
2023/01/29 02:57:50;;;;;;;16.73;8.55;;;0.70;78.60;;;;;;5015713;28;20182;-75
2023/01/29 03:00:19;;;;;;;13.40;8.15;;;0.70;78.60;;;;;;4990542;28;20937;-77
2023/01/29 03:02:59;;;;;;;14.55;7.65;;;0.70;78.70;;;;;;4990803;28;20305;-75
2023/01/29 03:05:34;;;;;;;16.77;7.80;;;0.80;78.90;;;;;;4990869;28;21641;-76
2023/01/29 03:08:09;;;;;;;15.20;7.65;;;0.80;78.90;;;;;;4990388;28;20208;-75
2023/01/29 03:10:44;;;;;;;13.57;7.97;;;0.90;78.40;;;;;;4992194;28;20583;-76
2023/01/29 03:13:39;;;;;;;16.38;7.18;;;0.90;78.00;;;;;;4993091;28;20239;-74
2023/01/29 03:16:19;;;;;;;14.80;7.78;;;0.90;77.80;;;;;;4987459;28;20194;-75
2023/01/29 03:19:07;;;;;;;14.35;7.93;;;0.90;78.00;;;;;;4979740;28;20185;-74
2023/01/29 03:21:50;;;;;;;15.50;7.68;;;0.90;77.80;;;;;;4988069;28;20313;-74
2023/01/29 03:32:39;;;;;;;16.77;7.55;;;0.70;78.00;;;;;;4989286;28;20260;-73
2023/01/29 03:35:08;;;;;;;18.67;7.80;;;0.60;78.30;;;;;;4996760;28;20201;-75
2023/01/29 03:37:33;;;;;;;10.88;7.10;;;0.60;78.30;;;;;;5010162;28;20193;-74
2023/01/29 03:40:01;;;;;;;11.97;7.73;;;0.60;78.30;;;;;;5010415;28;20252;-76
2023/01/29 03:42:51;;;;;;;16.85;7.85;;;0.60;78.60;;;;;;5017579;28;20202;-73
2023/01/29 03:45:35;;;;;;;13.57;7.05;;;0.60;78.40;;;;;;5007731;28;20276;-74
2023/01/29 03:48:19;;;;;;;14.15;7.03;;;0.60;78.30;;;;;;5010389;28;20690;-75
2023/01/29 03:50:55;;;;;;;16.67;8.05;;;0.70;78.40;;;;;;5014922;28;20664;-75
2023/01/29 03:53:52;;;;;;;16.30;7.95;;;0.70;78.10;;;;;;5018523;28;20186;-76
2023/01/29 03:56:21;;;;;;;15.40;7.75;;;0.70;78.10;;;;;;5023351;28;20188;-76
2023/01/29 03:59:01;;;;;;;15.05;7.25;;;0.70;78.10;;;;;;5012955;28;20204;-75
2023/01/29 04:01:43;;;;;;;14.93;7.68;;;0.80;78.10;;;;;;5010331;28;20672;-75
2023/01/29 04:04:25;;;;;;;15.32;8.10;;;0.80;78.10;;;;;;5019507;28;20178;-77
2023/01/29 04:06:56;;;;;;;13.77;7.60;;;0.90;78.00;;;;;;5014892;28;20288;-75
2023/01/29 04:09:31;;;;;;;14.57;7.20;;;0.90;77.70;;;;;;5017603;28;20220;-75
2023/01/29 04:12:07;;;;;;;16.75;8.20;;;0.90;77.70;;;;;;5016902;28;20672;-77
2023/01/29 04:14:34;;;;;;;12.45;7.15;;;1.00;77.70;;;;;;5009678;28;20193;-76
2023/01/29 04:17:09;;;;;;;12.98;7.25;;;1.00;77.70;;;;;;5013462;28;20189;-75
2023/01/29 04:19:35;;;;;;;13.13;7.30;;;1.00;77.10;;;;;;5018510;28;20672;-75
2023/01/29 04:22:08;;;;;;;15.60;6.97;;;1.00;76.80;;;;;;5017586;28;20217;-74
2023/01/29 04:24:34;;;;;;;14.95;7.82;;;0.90;76.70;;;;;;5021770;28;20217;-75
2023/01/29 04:27:16;;;;;;;14.97;7.23;;;0.80;77.30;;;;;;5015289;28;20272;-76
2023/01/29 04:29:56;;;;;;;16.17;7.70;;;0.90;77.40;;;;;;5025313;28;20212;-77
2023/01/29 04:32:48;;;;;;;23.13;7.95;;;0.80;77.60;;;;;;5030886;28;20189;-75
2023/01/29 04:35:16;;;;;;;14.00;7.60;;;0.70;77.60;;;;;;5016969;28;20675;-75
2023/01/29 04:38:36;;;;;;;15.93;7.57;;;0.70;77.70;;;;;;5011858;28;20643;-75
2023/01/29 04:41:06;;;;;;;16.98;7.90;;;0.70;77.80;;;;;;4986487;28;20349;-75
2023/01/29 04:43:46;;;;;;;14.05;8.02;;;0.80;77.70;;;;;;4974275;28;21174;-76
2023/01/29 04:46:20;;;;;;;13.77;8.07;;;0.80;77.70;;;;;;4994551;28;20296;-75
2023/01/29 04:48:51;;;;;;;14.32;7.80;;;0.80;77.70;;;;;;4997727;28;20209;-76
2023/01/29 04:51:29;;;;;;;13.68;8.05;;;0.80;77.60;;;;;;4993633;28;20210;-76
2023/01/29 04:54:19;;;;;;;14.60;7.45;;;0.70;77.60;;;;;;4998027;28;20185;-74
2023/01/29 04:57:04;;;;;;;14.57;7.57;;;0.60;77.80;;;;;;4992277;28;20190;-75
2023/01/29 04:59:36;;;;;;;14.05;7.80;;;0.60;77.70;;;;;;5000822;28;20182;-75
2023/01/29 05:02:02;;;;;;;12.00;7.03;;;0.60;78.10;;;;;;4996946;28;20218;-74
2023/01/29 05:04:31;;;;;;;13.60;8.02;;;0.50;77.80;;;;;;4999941;28;20202;-75
2023/01/29 05:07:00;;;;;;;13.98;8.15;;;0.50;78.00;;;;;;4998529;28;20201;-77
2023/01/29 05:09:26;;;;;;;14.98;7.72;;;0.50;78.30;;;;;;5008531;28;20290;-76
2023/01/29 05:11:52;;;;;;;12.93;7.07;;;0.60;78.10;;;;;;4999043;28;20274;-75
2023/01/29 05:14:19;;;;;;;16.25;8.00;;;0.70;77.70;;;;;;5002369;28;20681;-76
2023/01/29 05:16:51;;;;;;;10.43;6.28;;;0.80;77.30;;;;;;5029174;28;20672;-74
2023/01/29 05:19:17;;;;;;;13.38;7.32;;;0.70;77.30;;;;;;5023323;28;20195;-75
2023/01/29 05:21:45;;;;;;;13.73;7.60;;;0.70;77.30;;;;;;5018231;28;20300;-76
2023/01/29 05:24:17;;;;;;;13.00;7.70;;;0.70;77.10;;;;;;5027569;28;20177;-75
2023/01/29 05:29:29;;;;;;;15.70;7.65;;;0.70;77.30;;;;;;5021813;28;20200;-75
2023/01/29 05:31:55;;;;;;;13.53;7.50;;;0.70;77.40;;;;;;5015259;28;20622;-73
2023/01/29 05:34:20;;;;;;;17.37;7.80;;;0.70;77.40;;;;;;5022940;28;20263;-77
2023/01/29 05:36:46;;;;;;;15.90;7.90;;;0.70;77.40;;;;;;5018352;28;20206;-74
2023/01/29 05:39:11;;;;;;;12.77;7.53;;;0.70;77.30;;;;;;5017390;28;20330;-77
2023/01/29 05:41:37;;;;;;;13.40;8.50;;;0.70;77.40;;;;;;5014599;28;20249;-78
2023/01/29 05:44:03;;;;;;;15.47;7.70;;;0.70;77.40;;;;;;5019010;28;20186;-75
2023/01/29 05:46:28;;;;;;;11.90;6.93;;;0.70;77.60;;;;;;5014492;28;20185;-75
2023/01/29 05:48:54;;;;;;;17.80;8.90;;;0.70;77.40;;;;;;5024503;28;20244;-76
2023/01/29 05:51:20;;;;;;;16.93;7.77;;;0.70;77.40;;;;;;5017563;28;20309;-76
2023/01/29 05:53:45;;;;;;;13.60;7.17;;;0.60;77.40;;;;;;5024621;28;20228;-76
2023/01/29 05:56:11;;;;;;;15.63;7.97;;;0.50;77.70;;;;;;5019099;28;20178;-77
2023/01/29 05:58:37;;;;;;;18.97;7.10;;;0.60;78.00;;;;;;5019901;28;20269;-75
2023/01/29 06:01:16;;;;;;;14.50;8.10;;;0.60;77.80;;;;;;5014625;28;20214;-75
2023/01/29 06:03:42;;;;;;;12.82;7.18;;;0.60;77.40;;;;;;5024835;28;20189;-77
2023/01/29 06:06:08;;;;;;;17.03;7.90;;;0.60;77.30;;;;;;5022939;28;20185;-76
2023/01/29 06:08:34;;;;;;;14.17;8.10;;;0.60;77.30;;;;;;5017318;28;20182;-76
2023/01/29 06:10:59;;;;;;;18.97;8.63;;;0.60;77.30;;;;;;5023453;28;20487;-77
2023/01/29 06:13:25;;;;;;;14.60;7.90;;;0.50;77.30;;;;;;5030351;28;20193;-77
2023/01/29 06:15:50;;;;;;;12.87;8.07;;;0.60;77.60;;;;;;5021574;28;20197;-77
2023/01/29 06:18:16;;;;;;;15.90;8.43;;;0.60;77.60;;;;;;5014496;28;20657;-76
2023/01/29 06:20:41;;;;;;;14.93;8.30;;;0.60;77.70;;;;;;5012508;28;20293;-76
2023/01/29 06:23:07;;;;;;;14.13;8.07;;;0.60;77.60;;;;;;5036818;28;20209;-75
2023/01/29 06:25:33;;;;;;;10.37;7.50;;;0.50;77.30;;;;;;5031144;28;20237;-76
2023/01/29 06:27:58;;;;;;;17.00;8.30;;;0.50;77.60;;;;;;5038936;28;20182;-75
2023/01/29 06:30:24;;;;;;;22.33;9.17;;;0.40;77.70;;;;;;5032766;28;20197;-75
2023/01/29 06:32:49;;;;;;;12.20;7.03;;;0.40;77.70;;;;;;5033008;28;20237;-76
2023/01/29 06:35:15;;;;;;;19.50;8.53;;;0.30;77.70;;;;;;5038639;28;20190;-74
2023/01/29 06:37:40;;;;;;;16.67;8.30;;;0.30;78.00;;;;;;5037057;28;20346;-75
2023/01/29 06:40:07;;;;;;;17.23;7.60;;;0.30;78.30;;;;;;5019313;28;20229;-74
2023/01/29 06:42:34;;;;;;;15.68;7.80;;;0.30;78.40;;;;;;5012849;28;20704;-76
2023/01/29 06:45:00;;;;;;;10.98;7.85;;;0.30;78.40;;;;;;5022946;28;20174;-75
2023/01/29 06:47:26;;;;;;;16.10;8.63;;;0.40;78.40;;;;;;5024640;28;20256;-76
2023/01/29 06:49:52;;;;;;;13.95;7.97;;;0.40;78.40;;;;;;5010524;28;20220;-75
2023/01/29 06:52:17;;;;;;;15.53;7.30;;;0.50;78.30;;;;;;5011724;28;20181;-75
2023/01/29 06:54:43;;;;;;;13.63;7.83;;;0.50;78.30;;;;;;5021692;28;20265;-76
2023/01/29 06:57:08;;;;;;;14.67;7.67;;;0.50;78.10;;;;;;5015561;28;20237;-75
2023/01/29 06:59:34;;;;;;;12.07;7.33;;;0.50;78.10;;;;;;5015672;28;20178;-74
2023/01/29 07:01:59;;;;;;;13.87;7.83;;;0.50;78.10;;;;;;5011735;28;20244;-75
2023/01/29 07:04:25;;;;;;;13.33;7.50;;;0.50;78.10;;;;;;5018588;28;20190;-75
2023/01/29 07:06:50;;;;;;;15.77;8.80;;;0.50;77.80;;;;;;5012260;28;20174;-75
2023/01/29 07:09:16;;;;;;;12.43;7.37;;;0.50;77.60;;;;;;5022475;28;20661;-74
2023/01/29 07:11:42;;;;;;;13.13;7.23;;;0.50;77.60;;;;;;5011508;28;20263;-76
2023/01/29 07:14:07;;;;;;;15.67;7.57;;;0.50;77.70;;;;;;5017183;28;20518;-76
2023/01/29 07:16:33;;;;;;;17.00;8.80;;;0.50;77.80;;;;;;5017536;28;20321;-77
2023/01/29 07:19:00;;;;;;;15.63;7.90;;;0.60;77.80;;;;;;5019074;28;20189;-76
2023/01/29 07:21:25;;;;;;;16.08;8.15;;;0.60;77.70;;;;;;5012516;28;20842;-75
2023/01/29 07:23:51;;;;;;;11.97;7.40;;;0.60;77.60;;;;;;5017039;28;20177;-76
2023/01/29 07:26:16;;;;;;;17.93;9.83;;;0.60;77.10;;;;;;5012664;28;20182;-76
2023/01/29 07:28:42;;;;;;;15.33;8.10;;;0.60;77.10;;;;;;5020385;28;20192;-76
2023/01/29 07:31:11;;;;;;;13.60;7.73;;;0.60;77.30;;;;;;5017711;28;20292;-76
2023/01/29 07:33:37;;;;;;;16.98;8.60;;;0.70;77.30;;;;;;5016683;28;20185;-76
2023/01/29 07:36:07;;;;;;;20.00;8.60;;;0.70;77.10;;;;;;5018111;28;20205;-75
2023/01/29 07:38:32;;;;;;;14.23;7.57;;;0.70;77.10;;;;;;5020495;28;20538;-75
2023/01/29 07:40:58;;;;;;;16.40;7.90;;;0.70;77.00;;;;;;5021253;28;20201;-76
2023/01/29 07:43:24;;;;;;;13.10;7.97;;;0.80;76.70;;;;;;5016710;28;20209;-76
2023/01/29 07:45:50;;;;;;;13.13;7.17;;;0.80;76.50;;;;;;5015913;28;20182;-77
2023/01/29 07:48:15;;;;;;;13.43;7.63;;;0.80;76.20;;;;;;5015485;28;20209;-75
2023/01/29 07:50:42;;;;;;;17.10;8.73;;;0.80;76.20;;;;;;5010995;28;20233;-76
2023/01/29 07:53:13;;;;;;;12.35;7.65;;;0.80;76.50;;;;;;5016550;28;20174;-75
2023/01/29 07:55:38;;;;;;;14.20;7.57;;;0.80;76.10;;;;;;5031390;28;20264;-77
2023/01/29 07:58:04;;;;;;;12.73;8.10;;;0.80;75.90;;;;;;5021605;28;20228;-77
2023/01/29 08:00:31;;;;;;;11.80;6.97;;;0.70;76.40;;;;;;5013476;28;20209;-76
2023/01/29 08:03:25;;;;;;;18.83;8.68;;;0.80;76.50;;;;;;5025809;28;20205;-76
2023/01/29 08:05:51;;;;;;;15.80;8.32;;;0.80;76.50;;;;;;4994149;28;20186;-76
2023/01/29 08:08:18;;;;;;;14.03;7.67;;;0.70;76.40;;;;;;4998827;28;20677;-75
2023/01/29 08:10:43;;;;;;;14.77;7.78;;;0.80;76.70;;;;;;4992765;28;20346;-76
2023/01/29 08:13:09;;;;;;;18.70;8.53;;;0.80;76.70;;;;;;5004601;28;20182;-74
2023/01/29 08:15:35;;;;;;;14.03;7.30;;;1.00;76.50;;;;;;4999946;28;20222;-76
2023/01/29 08:18:01;;;;;;;20.08;8.48;;;1.00;76.20;;;;;;4998318;28;20666;-75
2023/01/29 08:20:27;;;;;;;16.83;7.90;;;1.00;76.20;;;;;;5001785;28;20210;-77
2023/01/29 08:23:04;;;;;;;14.27;7.83;;;1.00;76.20;;;;;;5004523;28;20214;-74
2023/01/29 08:25:30;;;;;;;17.13;8.50;;;1.00;76.20;;;;;;5007749;28;20197;-76
2023/01/29 08:27:57;;;;;;;16.77;8.57;;;1.00;76.20;;;;;;5003773;28;20178;-75
2023/01/29 08:30:24;;;;;;;12.07;7.65;;;1.00;76.20;;;;;;5007819;28;20563;-75
2023/01/29 08:32:49;;;;;;;15.82;8.15;;;1.00;76.40;;;;;;5005805;28;20277;-76
2023/01/29 08:35:15;;;;;;;15.60;8.50;;;1.00;76.20;;;;;;5005558;28;20253;-75
2023/01/29 08:37:41;;;;;;;16.03;7.90;;;1.00;76.20;;;;;;4999705;28;20198;-75
2023/01/29 08:40:08;;;;;;;16.20;7.60;;;1.10;76.20;;;;;;4996772;28;20209;-76
2023/01/29 08:42:33;;;;;;;14.50;8.73;;;1.20;75.80;;;;;;5033927;28;20703;-75
2023/01/29 08:44:59;;;;;;;17.30;8.87;;;1.10;75.20;;;;;;5020851;28;20431;-75
2023/01/29 08:47:25;;;;;;;14.30;7.87;;;1.10;75.50;;;;;;5021730;28;20186;-76
2023/01/29 08:49:50;;;;;;;13.50;7.50;;;1.10;75.40;;;;;;5015913;28;20206;-77
2023/01/29 08:52:16;;;;;;;15.70;8.37;;;1.10;75.40;;;;;;5027052;28;20196;-75
2023/01/29 08:54:41;;;;;;;13.30;8.20;;;1.20;75.20;;;;;;5025189;28;20232;-76
2023/01/29 08:57:07;;;;;;;13.43;7.77;;;1.30;75.10;;;;;;5035023;28;20201;-76
2023/01/29 08:59:32;;;;;;;15.77;8.80;;;1.30;75.20;;;;;;5043473;28;20206;-78
2023/01/29 09:01:58;;;;;;;17.00;8.47;;;1.40;75.50;;;;;;5024792;28;20353;-76
2023/01/29 09:04:23;;;;;;;18.20;9.43;;;1.40;74.80;;;;;;5018291;28;20196;-78
2023/01/29 09:06:49;;;;;;;19.07;9.13;;;1.50;74.30;;;;;;5027557;28;20181;-77
2023/01/29 09:09:15;;;;;;;14.73;8.77;;;1.60;74.50;;;;;;5025288;28;20193;-77
2023/01/29 09:11:40;;;;;;;17.87;9.27;;;1.60;74.50;;;;;;5021814;28;20275;-77
2023/01/29 09:14:06;;;;;;;15.10;8.20;;;1.80;74.50;;;;;;5016414;28;20189;-76
2023/01/29 09:16:31;;;;;;;17.60;8.77;;;1.90;73.60;;;;;;5014157;28;20264;-76
2023/01/29 09:18:57;;;;;;;15.27;8.33;;;1.90;73.20;;;;;;5016994;28;20221;-76
2023/01/29 09:21:22;;;;;;;18.80;8.73;;;1.90;73.30;;;;;;5018133;28;20262;-76
2023/01/29 09:23:48;;;;;;;18.03;8.60;;;1.80;73.30;;;;;;5020220;28;20258;-78
2023/01/29 09:26:14;;;;;;;13.13;9.23;;;1.70;73.50;;;;;;5015887;28;20209;-78
2023/01/29 09:28:39;;;;;;;17.33;9.60;;;1.80;73.50;;;;;;5022142;28;20196;-76
2023/01/29 09:31:05;;;;;;;15.73;9.03;;;1.80;73.20;;;;;;5023303;28;20714;-76
2023/01/29 09:33:31;;;;;;;16.57;9.00;;;1.70;73.20;;;;;;5020505;28;20194;-76
2023/01/29 09:35:56;;;;;;;17.05;9.57;;;1.70;73.60;;;;;;5016984;28;20174;-78
2023/01/29 09:38:22;;;;;;;19.20;8.80;;;1.70;73.30;;;;;;5018588;28;20203;-76
2023/01/29 09:40:58;;;;;;;15.73;9.17;;;1.70;73.50;;;;;;5019466;28;20320;-75
2023/01/29 09:43:34;;;;;;;18.08;9.13;;;1.70;73.50;;;;;;5023295;28;20276;-75
2023/01/29 09:46:13;;;;;;;20.10;9.63;;;1.80;73.90;;;;;;5030180;28;20196;-77
2023/01/29 09:48:40;;;;;;;18.23;9.65;;;1.90;74.00;;;;;;5030373;28;20191;-77
2023/01/29 09:51:19;;;;;;;15.40;9.05;;;2.00;73.90;;;;;;5020068;28;20206;-75
2023/01/29 09:53:53;;;;;;;14.80;9.48;;;2.10;73.70;;;;;;5021431;28;20189;-78
2023/01/29 09:56:21;;;;;;;18.13;10.40;;;2.30;73.50;;;;;;5032613;28;20738;-77
2023/01/29 09:58:46;;;;;;;16.10;9.00;;;2.40;73.00;;;;;;5024340;28;20472;-77
2023/01/29 10:01:16;;;;;;;17.53;9.40;;;2.40;72.70;;;;;;5015480;28;20249;-77
2023/01/29 10:04:07;;;;;;;18.65;9.90;;;2.40;72.70;;;;;;5013649;28;20213;-77
2023/01/29 10:06:49;;;;;;;23.15;10.77;;;2.50;72.90;;;;;;5006505;28;20209;-76
2023/01/29 10:09:45;;;;;;;17.95;10.68;;;2.60;72.30;;;;;;5018177;28;20200;-75
2023/01/29 10:12:31;;;;;;;17.38;9.80;;;2.60;72.40;;;;;;5011680;28;20760;-77
2023/01/29 10:15:02;;;;;;;15.00;9.90;;;2.80;72.30;;;;;;5023382;28;20227;-77
2023/01/29 10:18:11;;;;;;;16.80;10.87;;;3.10;71.70;;;;;;5016817;28;20429;-77
2023/01/29 10:21:01;;;;;;;17.15;10.05;;;3.00;70.20;;;;;;5007598;28;20464;-75
2023/01/29 10:23:45;;;;;;;18.50;10.90;;;2.70;71.00;;;;;;5016952;28;20661;-77
2023/01/29 10:26:12;;;;;;;20.35;11.75;;;2.50;71.70;;;;;;5018483;28;20412;-76
2023/01/29 10:28:45;;;;;;;18.83;10.90;;;2.40;72.40;;;;;;5024139;28;20193;-78
2023/01/29 10:31:37;;;;;;;23.07;10.80;;;2.40;72.90;;;;;;5013990;28;20475;-77
2023/01/29 10:34:09;;;;;;;17.87;9.83;;;2.50;73.20;;;;;;5016662;28;20468;-77
2023/01/29 10:36:43;;;;;;;17.70;10.53;;;2.50;72.90;;;;;;5021994;28;20423;-77
2023/01/29 10:39:17;;;;;;;19.33;10.37;;;2.60;72.70;;;;;;5023118;28;20507;-75
2023/01/29 10:41:51;;;;;;;20.30;11.23;;;2.70;72.60;;;;;;5018155;28;20447;-77
2023/01/29 10:44:32;;;;;;;18.73;11.10;;;2.70;72.30;;;;;;5029050;28;20435;-76
2023/01/29 10:47:35;;;;;;;19.10;10.87;;;2.60;72.30;;;;;;5024256;28;20845;-77
2023/01/29 10:50:16;;;;;;;16.63;9.47;;;2.70;72.60;;;;;;5010927;28;20460;-76
2023/01/29 10:52:53;;;;;;;19.03;10.63;;;2.80;72.30;;;;;;5008920;28;20420;-76
2023/01/29 10:55:38;;;;;;;19.80;10.63;;;2.80;72.10;;;;;;5017628;28;20439;-75
2023/01/29 10:58:15;;;;;;;16.57;9.80;;;2.90;72.10;;;;;;5021361;28;20444;-76
2023/01/29 11:00:41;;;;;;;18.10;9.98;;;2.90;72.00;;;;;;5020111;28;20459;-77
2023/01/29 11:03:26;;;;;;;19.03;10.47;;;2.90;72.10;;;;;;5020827;28;20696;-77
2023/01/29 11:06:10;;;;;;;19.48;10.10;;;2.90;72.00;;;;;;5016483;28;20178;-75
2023/01/29 11:08:55;;;;;;;22.90;10.47;;;2.90;71.80;;;;;;5012066;28;20186;-77
2023/01/29 11:11:30;;;;;;;20.90;11.43;;;2.90;72.10;;;;;;5017228;28;20460;-76
2023/01/29 11:14:05;;;;;;;19.30;11.00;;;2.90;72.10;;;;;;5020237;28;20920;-76
2023/01/29 11:16:38;;;;;;;18.07;10.20;;;3.10;72.00;;;;;;5022459;28;20409;-76
2023/01/29 11:19:04;;;;;;;18.33;9.80;;;3.00;71.60;;;;;;5024947;28;20883;-75
2023/01/29 11:21:29;;;;;;;18.40;10.20;;;2.90;71.80;;;;;;5012181;28;20470;-76
2023/01/29 11:24:17;;;;;;;17.93;9.87;;;2.90;71.70;;;;;;5014369;28;20185;-75
2023/01/29 11:26:45;;;;;;;19.65;10.85;;;2.90;71.40;;;;;;5016202;28;20177;-77
2023/01/29 11:29:28;;;;;;;21.67;10.07;;;2.80;71.80;;;;;;5022131;28;20170;-76
2023/01/29 11:31:56;;;;;;;17.63;9.53;;;3.00;72.00;;;;;;5013292;28;20444;-76
2023/01/29 11:34:31;;;;;;;21.77;10.98;;;3.10;71.80;;;;;;5017368;28;20436;-77
2023/01/29 11:37:03;;;;;;;16.30;10.07;;;3.30;71.60;;;;;;5020991;28;20190;-78
2023/01/29 11:39:31;;;;;;;16.47;10.23;;;3.40;71.10;;;;;;5011671;28;20409;-76
2023/01/29 11:42:07;;;;;;;16.00;9.43;;;3.40;70.40;;;;;;5011454;28;20461;-76
2023/01/29 11:44:39;;;;;;;17.73;9.97;;;3.20;70.70;;;;;;5013916;28;20417;-77
2023/01/29 11:47:27;;;;;;;17.27;10.13;;;3.10;71.30;;;;;;5013084;28;20420;-77
2023/01/29 11:49:55;;;;;;;24.33;10.43;;;3.00;71.10;;;;;;5008366;28;20516;-77
2023/01/29 11:52:32;;;;;;;18.17;10.33;;;3.00;71.30;;;;;;5010534;28;20924;-76
2023/01/29 11:55:04;;;;;;;19.83;11.20;;;3.20;71.30;;;;;;5020619;28;20447;-75
2023/01/29 11:57:34;;;;;;;21.07;11.10;;;3.10;70.80;;;;;;5014590;28;20581;-77
2023/01/29 12:00:20;;;;;;;17.23;9.97;;;2.90;71.30;;;;;;5008318;28;20916;-77
2023/01/29 12:03:05;;;;;;;20.73;9.83;;;3.00;71.40;;;;;;5018529;28;20605;-78
2023/01/29 12:05:32;;;;;;;19.27;10.13;;;3.10;71.60;;;;;;5021572;28;20423;-76
2023/01/29 12:08:00;;;;;;;18.30;9.50;;;3.30;71.70;;;;;;5024878;28;20511;-77
2023/01/29 12:10:29;;;;;;;19.30;10.00;;;3.30;70.70;;;;;;5015303;28;20463;-77
2023/01/29 12:13:04;;;;;;;16.67;9.97;;;3.30;70.50;;;;;;5021145;28;21086;-76
2023/01/29 12:15:30;;;;;;;19.00;9.23;;;3.30;70.50;;;;;;5021573;28;20420;-78
2023/01/29 12:18:02;;;;;;;19.93;9.90;;;3.20;70.80;;;;;;5020206;28;20953;-76
2023/01/29 12:20:39;;;;;;;24.37;9.83;;;3.10;71.00;;;;;;5021596;28;20206;-77
2023/01/29 12:23:24;;;;;;;14.53;8.97;;;3.00;71.10;;;;;;5024620;28;20470;-78
2023/01/29 12:25:55;;;;;;;21.67;11.23;;;3.10;71.70;;;;;;5023240;28;20424;-78
2023/01/29 12:28:38;;;;;;;18.87;10.90;;;3.30;71.70;;;;;;5032838;28;20441;-76
2023/01/29 12:31:31;;;;;;;21.00;10.63;;;3.50;70.80;;;;;;5025521;28;20460;-76
2023/01/29 12:34:17;;;;;;;15.83;10.10;;;3.40;70.70;;;;;;5029201;28;20479;-77
2023/01/29 12:36:54;;;;;;;18.00;9.73;;;3.50;70.70;;;;;;5017731;28;20432;-76
2023/01/29 12:39:20;;;;;;;18.43;10.60;;;3.30;71.00;;;;;;5017993;28;20435;-77
2023/01/29 12:42:03;;;;;;;19.63;11.30;;;3.20;71.40;;;;;;5017344;28;20470;-77
2023/01/29 12:44:44;;;;;;;30.77;12.35;;;3.10;71.60;;;;;;5027138;28;20443;-75
2023/01/29 12:47:32;;;;;;;22.27;10.35;;;3.10;71.80;;;;;;5031467;28;20198;-75
2023/01/29 12:50:04;;;;;;;20.97;10.53;;;3.30;72.00;;;;;;5038578;28;20206;-76
2023/01/29 12:52:54;;;;;;;20.57;10.63;;;3.50;71.40;;;;;;5025113;28;20451;-76
2023/01/29 12:55:54;;;;;;;24.37;11.93;;;3.70;71.10;;;;;;5021520;28;20490;-74
2023/01/29 12:58:33;;;;;;;16.80;10.20;;;4.00;70.10;;;;;;4953144;29;20478;-74
2023/01/29 13:01:11;;;;;;;22.43;11.17;;;4.30;69.20;;;;;;4962872;29;20466;-74
2023/01/29 13:03:54;;;;;;;21.20;10.30;;;4.50;68.60;;;;;;4958189;28;20478;-76
2023/01/29 13:06:29;;;;;;;19.20;9.77;;;4.40;67.70;;;;;;4960121;28;20437;-75
2023/01/29 13:09:00;;;;;;;17.93;10.07;;;4.40;68.30;;;;;;4956111;28;20419;-75
2023/01/29 13:11:42;;;;;;;16.47;10.23;;;4.40;68.60;;;;;;4939575;29;20455;-76
2023/01/29 13:14:41;;;;;;;17.33;10.00;;;4.30;67.70;;;;;;4969074;28;20438;-74
2023/01/29 13:17:25;;;;;;;15.47;9.03;;;4.30;68.30;;;;;;4978784;28;20425;-75
2023/01/29 13:19:59;;;;;;;18.37;10.47;;;4.50;68.00;;;;;;4970675;28;20474;-75
2023/01/29 13:22:30;;;;;;;17.43;9.10;;;4.50;67.50;;;;;;4982245;28;20576;-77
2023/01/29 13:24:56;;;;;;;20.90;10.33;;;4.50;67.60;;;;;;4973620;28;20427;-75
2023/01/29 13:27:27;;;;;;;19.30;10.40;;;4.50;67.50;;;;;;4976497;28;20486;-75
2023/01/29 13:29:54;;;;;;;17.13;9.27;;;4.60;67.60;;;;;;4980831;28;20458;-75
2023/01/29 13:32:28;;;;;;;18.57;9.47;;;4.70;67.00;;;;;;4980770;28;20510;-76
2023/01/29 13:35:04;;;;;;;21.00;11.07;;;4.60;67.20;;;;;;5023275;28;20429;-76